Time;durP1;ratioP1;P1;durP2;ratioP2;P2;SDS_P1;SDS_P2;PMS_P1;PMS_P2;Temp;Humidity;BMP_temperature;BMP_pressure;BME280_temperature;BME280_humidity;BME280_pressure;Samples;Min_cycle;Max_cycle;Signal;HPM_P1;HPM_P2
2023/04/16 00:00:07;;;;;;;5.60;3.97;;;;;;;4.41;100.00;92861.19;2095612;28;20032;-82
2023/04/16 00:01:08;;;;;;;3.92;3.53;;;;;;;4.31;100.00;92859.34;2104615;28;20153;-81
2023/04/16 00:02:09;;;;;;;5.78;4.82;;;;;;;4.24;100.00;92860.84;2104762;28;20580;-81
2023/04/16 00:03:10;;;;;;;4.70;4.20;;;;;;;4.20;100.00;92862.75;2104551;28;20024;-81
2023/04/16 00:04:11;;;;;;;5.28;4.20;;;;;;;4.20;100.00;92857.44;2100894;28;20024;-81
2023/04/16 00:05:13;;;;;;;3.58;3.28;;;;;;;4.50;100.00;92857.00;2100856;28;20027;-81
2023/04/16 00:06:14;;;;;;;3.60;3.30;;;;;;;4.40;100.00;92857.78;2097620;28;20122;-80
2023/04/16 00:07:15;;;;;;;3.65;3.33;;;;;;;4.44;100.00;92860.44;2104463;28;20027;-81
2023/04/16 00:08:16;;;;;;;3.80;3.50;;;;;;;4.31;100.00;92854.81;2108386;27;20573;-82
2023/04/16 00:09:17;;;;;;;3.58;3.28;;;;;;;4.31;100.00;92854.81;2109169;28;20506;-81
2023/04/16 00:10:18;;;;;;;4.00;3.70;;;;;;;4.41;100.00;92855.91;2100718;28;20032;-82
2023/04/16 00:11:19;;;;;;;4.43;3.50;;;;;;;4.24;100.00;92862.75;2096612;28;20561;-81
2023/04/16 00:12:22;;;;;;;4.40;4.00;;;;;;;4.19;100.00;92858.59;2096281;28;20154;-81
2023/04/16 00:13:24;;;;;;;3.95;3.55;;;;;;;4.12;100.00;92853.31;2100181;28;20075;-82
2023/04/16 00:14:25;;;;;;;3.97;3.60;;;;;;;4.13;100.00;92860.13;2094606;28;20024;-80
2023/04/16 00:15:26;;;;;;;4.07;3.67;;;;;;;4.08;100.00;92862.38;2102917;28;20027;-80
2023/04/16 00:16:27;;;;;;;3.90;3.50;;;;;;;4.28;100.00;92856.31;2109163;28;20055;-81
2023/04/16 00:17:29;;;;;;;3.90;3.60;;;;;;;4.28;100.00;92863.50;2104432;28;20024;-82
2023/04/16 00:18:32;;;;;;;4.00;3.60;;;;;;;4.24;100.00;92860.09;2090599;28;20024;-82
2023/04/16 00:19:35;;;;;;;3.92;3.58;;;;;;;4.17;100.00;92860.88;2099385;28;20478;-81
2023/04/16 00:20:36;;;;;;;3.92;3.53;;;;;;;4.15;100.00;92860.50;2108980;27;20134;-80
2023/04/16 00:21:37;;;;;;;4.30;3.80;;;;;;;4.12;100.00;92860.50;2108274;28;20032;-80
2023/04/16 00:22:40;;;;;;;4.07;3.58;;;;;;;4.10;100.00;92868.81;2096521;28;20288;-82
2023/04/16 00:23:43;;;;;;;4.25;3.83;;;;;;;4.11;100.00;92864.28;2101080;27;20449;-81
2023/04/16 00:24:44;;;;;;;4.03;3.63;;;;;;;4.08;100.00;92862.38;2100470;28;20032;-82
2023/04/16 00:25:45;;;;;;;4.55;3.95;;;;;;;4.10;100.00;92862.78;2101279;28;20113;-81
2023/04/16 00:26:46;;;;;;;4.97;4.15;;;;;;;4.07;100.00;92861.63;2112818;28;20027;-81
2023/04/16 00:27:47;;;;;;;4.55;3.95;;;;;;;4.08;100.00;92863.13;2100247;28;20039;-83
2023/04/16 00:28:48;;;;;;;4.85;4.35;;;;;;;4.05;100.00;92871.84;2095171;28;20526;-81
2023/04/16 00:29:49;;;;;;;5.07;4.10;;;;;;;4.09;100.00;92871.84;2101523;28;20414;-82
2023/04/16 00:30:50;;;;;;;4.72;3.88;;;;;;;4.11;100.00;92869.56;2108629;28;20139;-81
2023/04/16 00:31:51;;;;;;;6.05;4.07;;;;;;;4.10;100.00;92866.16;2108660;28;20023;-81
2023/04/16 00:32:52;;;;;;;4.55;4.00;;;;;;;4.10;100.00;92868.81;2094398;28;20676;-81
2023/04/16 00:33:53;;;;;;;4.38;3.97;;;;;;;4.12;100.00;92865.78;2100272;28;20062;-82
2023/04/16 00:34:55;;;;;;;4.50;4.05;;;;;;;4.28;100.00;92868.78;2110496;27;20033;-82
2023/04/16 00:35:56;;;;;;;4.13;3.72;;;;;;;4.26;100.00;92863.13;2102657;28;20024;-81
2023/04/16 00:36:57;;;;;;;4.20;3.75;;;;;;;4.24;100.00;92866.13;2094484;28;20028;-81
2023/04/16 00:37:58;;;;;;;5.15;4.03;;;;;;;4.19;100.00;92868.44;2096456;28;20024;-81
2023/04/16 00:38:58;;;;;;;4.32;3.88;;;;;;;4.22;100.00;92870.31;2099926;28;20039;-81
2023/04/16 00:40:00;;;;;;;5.38;4.30;;;;;;;4.17;100.00;92862.75;2101099;28;20032;-81
2023/04/16 00:41:01;;;;;;;4.43;4.03;;;;;;;4.16;100.00;92869.19;2100242;28;20115;-81
2023/04/16 00:42:02;;;;;;;4.03;3.63;;;;;;;4.18;100.00;92874.84;2102884;28;20043;-83
2023/04/16 00:43:03;;;;;;;4.10;3.70;;;;;;;4.13;100.00;92865.41;2103256;28;20505;-81
2023/04/16 00:44:04;;;;;;;5.05;4.00;;;;;;;4.22;100.00;92872.97;2100439;28;20024;-81
2023/04/16 00:45:06;;;;;;;4.60;4.10;;;;;;;4.19;100.00;92879.75;2092861;28;20025;-81
2023/04/16 00:46:07;;;;;;;4.70;4.03;;;;;;;4.18;100.00;92869.56;2095347;28;20107;-82
2023/04/16 00:47:08;;;;;;;4.03;3.63;;;;;;;4.21;100.00;92874.06;2108342;28;20544;-81
2023/04/16 00:48:12;;;;;;;4.65;4.00;;;;;;;4.22;100.00;92872.97;2117277;27;20027;-80
2023/04/16 00:49:13;;;;;;;4.07;3.67;;;;;;;4.18;100.00;92872.97;2117374;27;20419;-82
2023/04/16 00:50:14;;;;;;;4.05;3.65;;;;;;;4.19;100.00;92868.44;2108666;28;20028;-82
2023/04/16 00:51:17;;;;;;;5.65;3.95;;;;;;;4.15;100.00;92870.31;2091757;28;20016;-82
2023/04/16 00:52:18;;;;;;;4.28;3.88;;;;;;;4.16;100.00;92874.47;2104162;27;20553;-84
2023/04/16 00:53:19;;;;;;;5.20;4.20;;;;;;;4.13;100.00;92869.97;2104610;28;20024;-83
2023/04/16 00:54:20;;;;;;;4.22;3.65;;;;;;;4.16;100.00;92877.88;2113056;28;20493;-82
2023/04/16 00:55:21;;;;;;;4.90;3.63;;;;;;;4.17;100.00;92875.97;2114316;27;20129;-82
2023/04/16 00:56:23;;;;;;;4.40;3.80;;;;;;;4.16;100.00;92882.41;2104361;28;20020;-82
2023/04/16 00:57:25;;;;;;;5.70;4.47;;;;;;;4.16;100.00;92879.75;2095876;28;20031;-80
2023/04/16 00:58:28;;;;;;;5.32;4.07;;;;;;;4.16;100.00;92871.81;2099839;28;20017;-82
2023/04/16 00:59:29;;;;;;;4.50;3.95;;;;;;;4.21;100.00;92874.06;2105805;28;20124;-82
2023/04/16 01:00:30;;;;;;;4.05;3.58;;;;;;;4.21;100.00;92876.72;2116041;28;20026;-82
2023/04/16 01:01:31;;;;;;;5.38;4.32;;;;;;;4.19;100.00;92876.38;2108162;28;20020;-83
2023/04/16 01:02:33;;;;;;;4.15;3.53;;;;;;;4.21;100.00;92879.38;2100079;28;20056;-81
2023/04/16 01:03:42;;;;;;;5.35;4.25;;;;;;;4.24;100.00;92879.38;2104617;28;20020;-82
2023/04/16 01:04:43;;;;;;;4.75;4.00;;;;;;;4.23;100.00;92880.50;2098260;28;20417;-82
2023/04/16 01:05:48;;;;;;;5.43;4.20;;;;;;;4.23;100.00;92882.41;2099940;28;20234;-81
2023/04/16 01:06:49;;;;;;;4.90;3.95;;;;;;;4.21;100.00;92884.66;2106034;27;20080;-82
2023/04/16 01:07:51;;;;;;;4.93;4.28;;;;;;;4.26;100.00;92877.13;2108093;28;20034;-81
2023/04/16 01:08:52;;;;;;;6.13;4.60;;;;;;;4.23;100.00;92877.13;2096094;28;20678;-82
2023/04/16 01:09:53;;;;;;;5.72;4.40;;;;;;;4.20;100.00;92875.97;2093726;28;20036;-82
2023/04/16 01:10:54;;;;;;;5.15;4.28;;;;;;;4.27;100.00;92877.88;2100037;28;20024;-82
2023/04/16 01:12:00;;;;;;;4.82;4.15;;;;;;;4.34;100.00;92877.84;2099807;28;20474;-81
2023/04/16 01:13:02;;;;;;;6.38;4.20;;;;;;;4.32;100.00;92888.06;2100772;28;20098;-81
2023/04/16 01:14:03;;;;;;;5.82;4.53;;;;;;;4.24;100.00;92875.97;2100345;28;20107;-81
2023/04/16 01:15:05;;;;;;;6.25;4.72;;;;;;;4.37;100.00;92878.97;2100275;28;20016;-82
2023/04/16 01:16:08;;;;;;;6.35;4.00;;;;;;;4.38;100.00;92875.94;2094869;28;20070;-83
2023/04/16 01:17:09;;;;;;;6.07;4.63;;;;;;;4.62;100.00;92881.56;2100690;27;20486;-82
2023/04/16 01:18:17;;;;;;;4.68;4.05;;;;;;;4.73;100.00;92883.00;2100212;28;20620;-82
2023/04/16 01:19:19;;;;;;;6.07;4.47;;;;;;;4.62;100.00;92884.94;2097670;28;20106;-81
2023/04/16 01:20:22;;;;;;;5.80;4.45;;;;;;;4.48;100.00;92887.66;2095922;28;20042;-82
2023/04/16 01:21:23;;;;;;;6.25;5.05;;;;;;;4.40;100.00;92886.16;2091614;28;20032;-82
2023/04/16 01:22:28;;;;;;;5.93;4.75;;;;;;;4.47;100.00;92886.13;2094604;28;20031;-81
2023/04/16 01:23:30;;;;;;;7.95;5.15;;;;;;;4.33;100.00;92889.56;2099862;28;20502;-81
2023/04/16 01:24:32;;;;;;;6.18;5.00;;;;;;;4.35;100.00;92884.66;2094283;28;20556;-83
2023/04/16 01:25:33;;;;;;;7.13;5.40;;;;;;;4.36;100.00;92883.50;2104529;27;20562;-82
2023/04/16 01:26:34;;;;;;;7.30;5.40;;;;;;;4.39;100.00;92884.63;2105514;28;20180;-81
2023/04/16 01:27:36;;;;;;;6.93;5.03;;;;;;;4.34;100.00;92877.84;2098954;28;20109;-82
2023/04/16 01:28:37;;;;;;;6.63;4.88;;;;;;;4.43;100.00;92883.47;2112495;28;20031;-82
2023/04/16 01:29:38;;;;;;;6.50;5.30;;;;;;;4.43;100.00;92882.72;2120963;27;20038;-82
2023/04/16 01:30:39;;;;;;;7.18;5.20;;;;;;;4.34;100.00;92883.13;2104364;28;20491;-81
2023/04/16 01:31:40;;;;;;;7.00;5.32;;;;;;;4.40;100.00;92892.19;2091207;28;20032;-80
2023/04/16 01:32:41;;;;;;;6.07;4.80;;;;;;;4.31;100.00;92883.91;2112768;28;20032;-81
2023/04/16 01:33:42;;;;;;;7.10;5.18;;;;;;;4.29;100.00;92891.44;2108477;28;20051;-82
2023/04/16 01:34:43;;;;;;;6.30;5.15;;;;;;;4.40;100.00;92888.81;2099274;28;20061;-82
2023/04/16 01:35:44;;;;;;;7.10;4.97;;;;;;;4.43;100.00;92891.41;2108099;28;20063;-81
2023/04/16 01:36:45;;;;;;;5.97;4.63;;;;;;;4.36;100.00;92888.81;2100165;28;20031;-81
2023/04/16 01:37:48;;;;;;;6.05;4.85;;;;;;;4.48;100.00;92885.00;2100184;28;20028;-81
2023/04/16 01:38:49;;;;;;;5.45;4.55;;;;;;;4.44;100.00;92884.25;2108636;28;20062;-82
2023/04/16 01:39:50;;;;;;;6.32;4.90;;;;;;;4.48;100.00;92887.66;2100997;28;20075;-81
2023/04/16 01:40:56;;;;;;;6.80;4.38;;;;;;;4.45;100.00;92883.88;2097063;28;20824;-82
2023/04/16 01:41:57;;;;;;;6.10;4.70;;;;;;;4.40;100.00;92889.56;2102598;28;20107;-82
2023/04/16 01:42:58;;;;;;;7.30;4.97;;;;;;;4.39;100.00;92889.91;2103813;28;20050;-81
2023/04/16 01:43:59;;;;;;;5.55;4.50;;;;;;;4.35;100.00;92895.22;2095819;28;20074;-82
2023/04/16 01:45:00;;;;;;;5.93;4.65;;;;;;;4.29;100.00;92892.19;2103577;28;20085;-82
2023/04/16 01:46:14;;;;;;;6.72;5.00;;;;;;;4.46;100.00;92893.31;2109833;28;20065;-81
2023/04/16 01:47:16;;;;;;;6.43;4.70;;;;;;;4.45;100.00;92893.69;2108872;28;20027;-82
2023/04/16 01:48:17;;;;;;;6.82;5.05;;;;;;;4.45;100.00;92897.09;2095544;28;20112;-80
2023/04/16 01:49:18;;;;;;;6.13;4.97;;;;;;;4.52;100.00;92889.16;2107828;28;20410;-81
2023/04/16 01:50:21;;;;;;;6.22;4.93;;;;;;;4.48;100.00;92887.66;2103403;28;20028;-82
2023/04/16 01:51:22;;;;;;;7.82;5.45;;;;;;;4.36;100.00;92890.69;2099819;28;20028;-81
2023/04/16 01:52:23;;;;;;;7.15;4.80;;;;;;;4.38;100.00;92891.81;2095311;28;20021;-81
2023/04/16 01:53:24;;;;;;;6.30;4.82;;;;;;;4.28;100.00;92893.34;2101492;28;20398;-81
2023/04/16 01:54:27;;;;;;;7.80;5.40;;;;;;;4.24;100.00;92895.25;2107842;28;20027;-80
2023/04/16 01:55:29;;;;;;;6.88;4.82;;;;;;;4.38;100.00;92888.41;2099493;28;20024;-81
2023/04/16 01:56:30;;;;;;;6.32;4.75;;;;;;;4.45;100.00;92896.34;2091386;28;20111;-82
2023/04/16 01:57:31;;;;;;;8.93;5.38;;;;;;;4.43;100.00;92883.47;2103813;28;20482;-80
2023/04/16 01:58:34;;;;;;;6.85;5.50;;;;;;;4.49;100.00;92889.91;2093282;28;20028;-83
2023/04/16 01:59:35;;;;;;;8.38;5.03;;;;;;;4.40;100.00;92886.91;2096586;28;20024;-81
2023/04/16 02:00:37;;;;;;;8.98;5.35;;;;;;;4.49;100.00;92897.09;2102872;28;20081;-82
2023/04/16 02:01:39;;;;;;;8.55;5.57;;;;;;;4.40;100.00;92894.09;2115984;27;20082;-83
2023/04/16 02:02:40;;;;;;;8.38;6.05;;;;;;;4.42;100.00;92892.56;2104061;28;20025;-83
2023/04/16 02:03:41;;;;;;;7.88;5.57;;;;;;;4.44;100.00;92892.19;2099761;28;20052;-81
2023/04/16 02:04:45;;;;;;;9.00;6.07;;;;;;;4.33;100.00;92894.09;2099925;28;20032;-82
2023/04/16 02:05:46;;;;;;;9.88;6.57;;;;;;;4.32;100.00;92892.59;2108010;28;20050;-82
2023/04/16 02:06:47;;;;;;;9.00;6.13;;;;;;;4.32;100.00;92890.69;2099248;28;20028;-80
2023/04/16 02:07:49;;;;;;;9.50;6.18;;;;;;;4.47;100.00;92891.41;2098895;28;20380;-82
2023/04/16 02:08:51;;;;;;;9.45;6.50;;;;;;;4.42;100.00;92894.44;2092918;28;20532;-82
2023/04/16 02:09:52;;;;;;;12.10;6.68;;;;;;;4.39;100.00;92892.56;2095546;28;20028;-81
2023/04/16 02:10:56;;;;;;;9.25;6.20;;;;;;;4.50;100.00;92893.31;2100681;28;20078;-81
2023/04/16 02:11:58;;;;;;;10.93;6.03;;;;;;;4.60;100.00;92897.06;2106685;28;20071;-81
2023/04/16 02:12:59;;;;;;;7.78;5.97;;;;;;;4.56;100.00;92891.75;2106406;28;20024;-81
2023/04/16 02:14:01;;;;;;;9.55;6.50;;;;;;;4.39;100.00;92897.84;2099766;28;20386;-82
2023/04/16 02:15:03;;;;;;;8.25;5.78;;;;;;;4.29;100.00;92896.75;2105620;28;20027;-82
2023/04/16 02:16:05;;;;;;;9.55;6.60;;;;;;;4.26;100.00;92894.88;2104037;28;20371;-82
2023/04/16 02:17:06;;;;;;;9.63;6.30;;;;;;;4.19;100.00;92892.97;2094958;28;20163;-81
2023/04/16 02:18:07;;;;;;;9.02;6.15;;;;;;;4.26;100.00;92889.59;2103652;28;20024;-80
2023/04/16 02:30:53;;;;;;;;;;;;;;;4.19;100.00;92890.34;2593613;22;20986;-82
2023/04/16 02:31:54;;;;;;;7.68;5.10;;;;;;;4.28;100.00;92898.63;2558683;23;19934;-80
2023/04/16 02:32:55;;;;;;;6.22;4.43;;;;;;;4.31;100.00;92891.84;2534308;23;20017;-83
2023/04/16 02:33:56;;;;;;;7.00;4.65;;;;;;;4.23;100.00;92895.63;2546050;23;20005;-82
2023/04/16 02:35:02;;;;;;;5.95;4.43;;;;;;;4.13;100.00;92897.16;2546356;23;20005;-83
2023/04/16 02:36:05;;;;;;;5.28;4.15;;;;;;;4.23;100.00;92899.03;2536594;23;20016;-80
2023/04/16 02:37:06;;;;;;;6.90;4.15;;;;;;;4.15;100.00;92897.53;2546243;23;20396;-80
2023/04/16 02:38:08;;;;;;;6.20;4.07;;;;;;;4.38;100.00;92889.16;2533871;23;20040;-82
2023/04/16 02:39:09;;;;;;;5.53;3.80;;;;;;;4.54;100.00;92891.41;2534659;23;20101;-80
2023/04/16 02:40:11;;;;;;;5.15;4.18;;;;;;;4.36;100.00;92902.03;2534063;23;20002;-81
2023/04/16 02:41:12;;;;;;;5.45;4.10;;;;;;;4.25;100.00;92888.06;2546259;23;20371;-82
2023/04/16 02:42:13;;;;;;;5.25;4.00;;;;;;;4.23;100.00;92892.97;2546125;23;20025;-82
2023/04/16 02:43:14;;;;;;;6.07;4.45;;;;;;;4.15;100.00;92902.06;2546173;23;20417;-82
2023/04/16 02:44:15;;;;;;;6.30;4.43;;;;;;;4.12;100.00;92892.22;2545666;23;20456;-81
2023/04/16 02:45:16;;;;;;;5.85;4.05;;;;;;;4.24;100.00;92894.50;2546691;23;20052;-79
2023/04/16 02:46:17;;;;;;;4.93;3.80;;;;;;;4.41;100.00;92898.25;2546592;23;20008;-82
2023/04/16 02:47:18;;;;;;;5.88;4.22;;;;;;;4.36;100.00;92901.28;2558889;23;20015;-82
2023/04/16 02:48:19;;;;;;;5.45;4.18;;;;;;;4.29;100.00;92902.78;2558567;23;20043;-82
2023/04/16 02:49:21;;;;;;;4.97;3.55;;;;;;;4.32;100.00;92892.59;2546286;23;20444;-82
2023/04/16 02:50:22;;;;;;;6.05;4.05;;;;;;;4.28;100.00;92898.63;2545784;23;20001;-81
2023/04/16 02:51:23;;;;;;;5.38;3.70;;;;;;;4.31;100.00;92894.47;2533522;23;20305;-80
2023/04/16 02:52:24;;;;;;;5.50;4.00;;;;;;;4.45;100.00;92896.34;2546363;23;20001;-82
2023/04/16 02:53:25;;;;;;;5.00;3.70;;;;;;;4.39;100.00;92893.34;2546492;23;20403;-80
2023/04/16 02:54:26;;;;;;;6.00;3.80;;;;;;;4.25;100.00;92896.00;2546284;23;20029;-82
2023/04/16 02:55:28;;;;;;;5.70;3.90;;;;;;;4.23;100.00;92898.28;2570895;23;20008;-83
2023/04/16 02:56:31;;;;;;;5.45;4.32;;;;;;;4.25;100.00;92901.28;2557805;23;20001;-81
2023/04/16 02:57:32;;;;;;;5.40;3.97;;;;;;;4.32;100.00;92900.53;2534671;23;20016;-80
2023/04/16 02:58:34;;;;;;;5.13;3.83;;;;;;;4.31;100.00;92897.13;2534102;23;20029;-82
2023/04/16 02:59:35;;;;;;;6.55;4.55;;;;;;;4.24;100.00;92897.13;2546565;23;20006;-80
2023/04/16 03:00:37;;;;;;;5.90;4.15;;;;;;;4.30;100.00;92900.88;2545937;23;20092;-82
2023/04/16 03:01:38;;;;;;;5.07;4.20;;;;;;;4.24;100.00;92907.72;2546202;23;20181;-80
2023/04/16 03:02:41;;;;;;;6.03;4.47;;;;;;;4.29;100.00;92899.38;2558066;23;20089;-81
2023/04/16 03:03:42;;;;;;;6.78;4.45;;;;;;;4.35;100.00;92905.81;2534686;23;20009;-82
2023/04/16 03:04:43;;;;;;;6.68;5.15;;;;;;;4.39;100.00;92906.56;2546279;23;20005;-82
2023/04/16 03:05:44;;;;;;;5.75;4.35;;;;;;;4.32;100.00;92900.53;2545965;23;20005;-80
2023/04/16 03:06:45;;;;;;;7.57;5.03;;;;;;;4.28;100.00;92900.53;2546118;23;20009;-80
2023/04/16 03:07:46;;;;;;;7.28;5.28;;;;;;;4.28;100.00;92897.88;2558195;23;20421;-80
2023/04/16 03:08:47;;;;;;;5.85;4.72;;;;;;;4.33;100.00;92905.44;2558357;23;20424;-80
2023/04/16 03:09:49;;;;;;;11.20;4.97;;;;;;;4.33;100.00;92902.78;2546170;23;20010;-81
2023/04/16 03:10:51;;;;;;;8.48;5.60;;;;;;;4.32;100.00;92898.63;2546281;23;20009;-81
2023/04/16 03:11:52;;;;;;;8.30;5.63;;;;;;;4.41;100.00;92908.81;2557902;23;20293;-82
2023/04/16 03:12:52;;;;;;;7.35;5.22;;;;;;;4.31;100.00;92899.03;2558731;23;20005;-81
2023/04/16 03:13:53;;;;;;;9.70;5.50;;;;;;;4.29;100.00;92902.03;2533887;23;20025;-82
2023/04/16 03:14:54;;;;;;;8.10;5.60;;;;;;;4.19;100.00;92908.09;2545848;23;20006;-80
2023/04/16 03:15:55;;;;;;;7.93;5.55;;;;;;;4.26;100.00;92908.84;2546369;23;20036;-80
2023/04/16 03:16:57;;;;;;;7.60;5.45;;;;;;;4.28;100.00;92917.16;2545942;23;20106;-81
2023/04/16 03:17:59;;;;;;;9.05;6.00;;;;;;;4.26;100.00;92913.41;2546354;23;20005;-81
2023/04/16 03:19:00;;;;;;;8.43;5.68;;;;;;;4.23;100.00;92911.50;2534323;23;20354;-82
2023/04/16 03:20:02;;;;;;;10.57;6.00;;;;;;;4.15;100.00;92912.63;2558170;23;20016;-80
2023/04/16 03:21:03;;;;;;;9.65;6.50;;;;;;;4.10;100.00;92908.50;2558135;23;20096;-82
2023/04/16 03:22:05;;;;;;;8.82;6.45;;;;;;;4.16;100.00;92909.59;2557878;23;20136;-82
2023/04/16 03:23:06;;;;;;;10.52;6.70;;;;;;;4.11;100.00;92912.63;2546467;23;20031;-80
2023/04/16 03:24:07;;;;;;;8.82;6.80;;;;;;;4.20;100.00;92912.25;2558815;23;20428;-83
2023/04/16 03:25:08;;;;;;;10.52;7.20;;;;;;;4.22;100.00;92912.66;2534126;23;20002;-81
2023/04/16 03:26:09;;;;;;;10.38;6.90;;;;;;;4.19;100.00;92910.75;2545715;23;20009;-83
2023/04/16 03:27:10;;;;;;;11.60;7.78;;;;;;;4.33;100.00;92904.69;2545881;23;20001;-82
2023/04/16 03:28:11;;;;;;;9.32;6.82;;;;;;;4.28;100.00;92911.13;2534006;23;20384;-81
2023/04/16 03:29:12;;;;;;;11.25;7.07;;;;;;;4.34;100.00;92908.81;2546197;23;20009;-80
2023/04/16 03:30:14;;;;;;;11.27;7.43;;;;;;;4.25;100.00;92909.22;2558492;23;20001;-82
2023/04/16 03:31:15;;;;;;;12.55;7.57;;;;;;;4.32;100.00;92908.47;2544963;23;20111;-83
2023/04/16 03:32:16;;;;;;;10.98;7.70;;;;;;;4.12;100.00;92902.81;2530352;23;20425;-83
2023/04/16 03:33:17;;;;;;;11.88;8.35;;;;;;;4.13;100.00;92905.09;2530971;23;20037;-81
2023/04/16 03:34:18;;;;;;;11.35;8.23;;;;;;;4.11;100.00;92911.88;2543888;23;20039;-81
2023/04/16 03:35:19;;;;;;;12.20;8.38;;;;;;;4.20;100.00;92909.59;2543495;23;20504;-82
2023/04/16 03:36:21;;;;;;;12.70;8.50;;;;;;;4.31;100.00;92899.78;2531397;23;20006;-82
2023/04/16 03:37:22;;;;;;;14.80;8.85;;;;;;;4.14;100.00;92903.94;2531810;23;20048;-81
2023/04/16 03:38:25;;;;;;;12.55;8.40;;;;;;;4.12;100.00;92900.16;2530731;23;20013;-83
2023/04/16 03:39:26;;;;;;;11.38;8.30;;;;;;;4.29;100.00;92902.03;2531613;23;20418;-82
2023/04/16 03:40:27;;;;;;;16.58;10.25;;;;;;;4.11;100.00;92896.00;2531130;23;20009;-82
2023/04/16 03:41:29;;;;;;;13.63;8.82;;;;;;;4.02;100.00;92904.34;2542988;23;20005;-82
2023/04/16 03:42:30;;;;;;;13.05;9.25;;;;;;;4.08;100.00;92899.41;2531470;23;20006;-82
2023/04/16 03:43:32;;;;;;;13.77;8.80;;;;;;;4.14;100.00;92905.84;2543579;23;20013;-80
2023/04/16 03:44:33;;;;;;;13.73;9.15;;;;;;;4.08;100.00;92907.34;2542921;23;20084;-81
2023/04/16 03:45:35;;;;;;;12.70;8.85;;;;;;;4.30;100.00;92903.53;2543280;23;20013;-83
2023/04/16 03:46:37;;;;;;;13.23;8.88;;;;;;;4.15;100.00;92907.34;2568221;23;20080;-82
2023/04/16 03:47:38;;;;;;;15.52;9.20;;;;;;;4.25;100.00;92902.03;2543880;23;20032;-82
2023/04/16 03:48:39;;;;;;;16.73;9.85;;;;;;;4.24;100.00;92907.72;2531267;23;20020;-82
2023/04/16 03:49:40;;;;;;;15.43;10.10;;;;;;;4.21;100.00;92911.88;2543288;23;20017;-82
2023/04/16 03:50:44;;;;;;;16.08;10.15;;;;;;;4.17;100.00;92916.44;2543549;23;20064;-82
2023/04/16 03:51:46;;;;;;;15.82;9.82;;;;;;;4.09;100.00;92914.16;2567355;23;20036;-80
2023/04/16 03:52:48;;;;;;;17.33;10.77;;;;;;;4.01;100.00;92908.13;2555182;23;20016;-81
2023/04/16 03:53:49;;;;;;;17.65;10.30;;;;;;;4.02;100.00;92907.72;2531807;23;20342;-80
2023/04/16 03:54:51;;;;;;;19.17;10.35;;;;;;;4.01;100.00;92903.59;2531294;23;20093;-81
2023/04/16 03:55:52;;;;;;;17.50;10.40;;;;;;;3.95;100.00;92907.75;2543329;23;20516;-81
2023/04/16 03:56:53;;;;;;;17.55;11.35;;;;;;;3.91;100.00;92917.56;2543220;23;20005;-81
2023/04/16 03:57:56;;;;;;;20.48;10.68;;;;;;;3.90;100.00;92913.41;2530767;23;20532;-81
2023/04/16 03:58:58;;;;;;;17.33;10.38;;;;;;;4.06;100.00;92907.72;2544100;23;20329;-82
2023/04/16 03:59:59;;;;;;;18.15;9.88;;;;;;;4.09;100.00;92904.34;2543486;23;20440;-80
2023/04/16 04:01:00;;;;;;;19.73;11.35;;;;;;;4.04;100.00;92900.19;2531517;23;20001;-81
2023/04/16 04:02:01;;;;;;;19.60;10.98;;;;;;;4.22;100.00;92907.34;2542496;23;20088;-81
2023/04/16 04:03:02;;;;;;;17.95;10.68;;;;;;;4.19;100.00;92903.56;2543714;23;20048;-79
2023/04/16 04:04:03;;;;;;;17.45;10.63;;;;;;;4.10;100.00;92910.38;2555142;23;20408;-81
2023/04/16 04:05:05;;;;;;;19.67;11.60;;;;;;;3.96;100.00;92909.25;2542799;23;20001;-81
2023/04/16 04:06:07;;;;;;;19.50;11.82;;;;;;;3.90;100.00;92902.81;2555681;23;20078;-81
2023/04/16 04:07:08;;;;;;;21.40;12.55;;;;;;;4.00;100.00;92907.38;2568005;23;20012;-81
2023/04/16 04:08:10;;;;;;;21.00;12.40;;;;;;;3.93;100.00;92907.34;2555804;23;20031;-83
2023/04/16 04:09:12;;;;;;;21.65;12.32;;;;;;;4.10;100.00;92913.78;2543433;23;20076;-81
2023/04/16 04:10:13;;;;;;;22.85;12.50;;;;;;;4.00;100.00;92910.00;2530940;23;20008;-80
2023/04/16 04:11:14;;;;;;;20.27;12.13;;;;;;;4.04;100.00;92913.41;2531016;23;20010;-81
2023/04/16 04:12:15;;;;;;;20.25;11.88;;;;;;;4.06;100.00;92910.38;2530547;23;20456;-80
2023/04/16 04:13:16;;;;;;;23.58;13.63;;;;;;;3.94;100.00;92902.81;2543726;23;20002;-82
2023/04/16 04:14:17;;;;;;;24.40;13.07;;;;;;;3.92;100.00;92911.16;2530950;23;20006;-82
2023/04/16 04:15:18;;;;;;;22.10;12.18;;;;;;;3.88;100.00;92907.75;2543438;23;20012;-81
2023/04/16 04:16:19;;;;;;;26.10;12.15;;;;;;;3.83;100.00;92910.00;2554718;23;20008;-81
2023/04/16 04:17:20;;;;;;;22.38;12.63;;;;;;;3.92;100.00;92916.44;2543302;23;20040;-80
2023/04/16 04:18:21;;;;;;;23.30;12.82;;;;;;;3.85;100.00;92916.41;2542944;23;20461;-81
2023/04/16 04:19:22;;;;;;;22.50;12.95;;;;;;;3.92;100.00;92913.78;2555949;23;20032;-80
2023/04/16 04:20:23;;;;;;;23.67;12.77;;;;;;;3.88;100.00;92913.03;2531096;23;20001;-82
2023/04/16 04:21:26;;;;;;;20.55;11.98;;;;;;;3.88;100.00;92915.69;2543257;23;20037;-81
2023/04/16 04:22:28;;;;;;;21.45;12.73;;;;;;;3.91;100.00;92914.94;2542128;23;20001;-80
2023/04/16 04:23:29;;;;;;;21.00;12.27;;;;;;;3.91;100.00;92908.88;2531593;23;20103;-81
2023/04/16 04:24:31;;;;;;;20.63;12.02;;;;;;;4.00;100.00;92915.31;2543160;23;20005;-81
2023/04/16 04:25:35;;;;;;;21.75;12.18;;;;;;;4.03;100.00;92914.53;2555279;23;20051;-83
2023/04/16 04:26:37;;;;;;;21.67;11.82;;;;;;;4.00;100.00;92919.84;2544359;23;20006;-82
2023/04/16 04:27:38;;;;;;;22.67;12.73;;;;;;;4.01;100.00;92923.97;2554669;23;20009;-81
2023/04/16 04:28:40;;;;;;;24.58;13.13;;;;;;;4.06;100.00;92926.25;2555143;23;20028;-80
2023/04/16 04:29:43;;;;;;;24.40;13.20;;;;;;;3.89;100.00;92927.00;2543654;23;20009;-81
2023/04/16 04:30:44;;;;;;;26.40;12.55;;;;;;;3.97;100.00;92920.59;2531240;23;20024;-81
2023/04/16 04:31:46;;;;;;;24.42;13.05;;;;;;;3.89;100.00;92927.75;2542723;23;20464;-81
2023/04/16 04:32:47;;;;;;;22.83;13.38;;;;;;;3.82;100.00;92930.41;2530504;23;20430;-80
2023/04/16 04:33:49;;;;;;;26.80;14.38;;;;;;;3.92;100.00;92928.91;2542654;23;20006;-82
2023/04/16 04:34:51;;;;;;;25.20;13.63;;;;;;;3.92;100.00;92928.91;2543304;23;20060;-80
2023/04/16 04:35:53;;;;;;;28.02;14.27;;;;;;;3.84;100.00;92938.72;2543494;23;20451;-80
2023/04/16 04:36:54;;;;;;;30.40;15.13;;;;;;;3.87;100.00;92929.28;2531645;23;20452;-81
2023/04/16 04:37:56;;;;;;;31.63;15.88;;;;;;;3.90;100.00;92939.84;2542591;23;20227;-80
2023/04/16 04:38:57;;;;;;;28.42;14.38;;;;;;;3.98;100.00;92937.97;2555507;23;20368;-81
2023/04/16 04:39:58;;;;;;;28.25;15.40;;;;;;;3.89;100.00;92933.03;2542868;23;20010;-80
2023/04/16 04:40:59;;;;;;;27.38;14.57;;;;;;;3.83;100.00;92933.81;2543259;23;20433;-81
2023/04/16 04:42:02;;;;;;;28.35;14.60;;;;;;;3.91;100.00;92933.44;2530761;23;20005;-80
2023/04/16 04:43:02;;;;;;;33.17;15.20;;;;;;;3.96;100.00;92935.69;2531433;23;20349;-81
2023/04/16 04:44:05;;;;;;;26.92;14.20;;;;;;;4.07;100.00;92940.22;2543336;23;20038;-81
2023/04/16 04:45:06;;;;;;;26.58;14.70;;;;;;;3.98;100.00;92936.06;2543692;23;20060;-82
2023/04/16 04:46:07;;;;;;;28.30;15.43;;;;;;;3.78;100.00;92943.63;2531124;23;20081;-80
2023/04/16 04:47:08;;;;;;;31.13;15.63;;;;;;;3.81;100.00;92936.06;2543590;23;20346;-81
2023/04/16 04:48:10;;;;;;;34.40;16.55;;;;;;;3.80;100.00;92940.59;2543181;23;20002;-80
2023/04/16 04:49:11;;;;;;;31.98;16.23;;;;;;;3.81;100.00;92942.09;2530976;23;20010;-81
2023/04/16 04:50:12;;;;;;;34.65;15.18;;;;;;;3.83;100.00;92939.09;2531253;23;20069;-82
2023/04/16 04:51:13;;;;;;;29.02;14.98;;;;;;;3.69;100.00;92940.59;2530550;23;20057;-81
2023/04/16 04:52:14;;;;;;;27.23;14.18;;;;;;;3.83;100.00;92937.22;2530452;23;20029;-81
2023/04/16 04:53:15;;;;;;;28.60;15.23;;;;;;;3.93;100.00;92936.44;2530913;23;20017;-82
2023/04/16 04:54:16;;;;;;;28.75;14.25;;;;;;;3.89;100.00;92940.97;2543018;23;20430;-82
2023/04/16 04:55:17;;;;;;;27.65;14.75;;;;;;;3.83;100.00;92944.38;2555896;23;20503;-82
2023/04/16 04:56:18;;;;;;;21.08;12.15;;;;;;;3.87;100.00;92945.91;2556005;23;20031;-81
2023/04/16 04:57:20;;;;;;;24.30;12.65;;;;;;;3.91;100.00;92949.31;2554958;23;20062;-80
2023/04/16 04:58:21;;;;;;;20.38;11.15;;;;;;;3.99;100.00;92942.09;2530755;23;20010;-83
2023/04/16 04:59:23;;;;;;;22.20;11.85;;;;;;;3.94;100.00;92945.13;2530922;23;20077;-83